Time;durP1;ratioP1;P1;durP2;ratioP2;P2;SDS_P1;SDS_P2;PMS_P1;PMS_P2;Temp;Humidity;BMP_temperature;BMP_pressure;BME280_temperature;BME280_humidity;BME280_pressure;Samples;Min_cycle;Max_cycle;Signal;HPM_P1;HPM_P2
2023/06/30 00:00:12;;;;;;;12.00;4.38;;;13.30;99.90;;;;;;5031747;28;20141;-75
2023/06/30 00:02:40;;;;;;;14.88;4.00;;;13.20;99.90;;;;;;5031107;28;20456;-74
2023/06/30 00:05:05;;;;;;;11.88;3.78;;;13.10;99.90;;;;;;5031771;28;20499;-74
2023/06/30 00:07:31;;;;;;;11.63;3.63;;;13.00;99.90;;;;;;5031418;28;20057;-74
2023/06/30 00:09:57;;;;;;;7.80;3.53;;;13.00;99.90;;;;;;5031269;28;20429;-74
2023/06/30 00:12:22;;;;;;;10.57;3.78;;;12.90;99.90;;;;;;5030867;28;20045;-74
2023/06/30 00:14:48;;;;;;;11.73;4.05;;;12.90;99.90;;;;;;5031634;28;20045;-75
2023/06/30 00:17:13;;;;;;;13.77;4.00;;;12.90;99.90;;;;;;5029768;28;20542;-75
2023/06/30 00:19:39;;;;;;;10.55;3.70;;;12.80;99.90;;;;;;5031330;28;20099;-75
2023/06/30 00:22:05;;;;;;;10.82;3.80;;;12.80;99.90;;;;;;5031432;28;20100;-75
2023/06/30 00:24:30;;;;;;;14.07;3.70;;;12.70;99.90;;;;;;5029228;28;20049;-75
2023/06/30 00:26:56;;;;;;;12.85;3.78;;;12.70;99.90;;;;;;5031002;28;20572;-73
2023/06/30 00:29:22;;;;;;;11.70;3.83;;;12.90;99.90;;;;;;5031223;28;20092;-74
2023/06/30 00:31:48;;;;;;;12.57;3.72;;;12.90;99.90;;;;;;5031276;28;20055;-75
2023/06/30 00:34:14;;;;;;;14.20;3.85;;;12.60;99.90;;;;;;5029762;28;20041;-74
2023/06/30 00:36:39;;;;;;;12.85;3.53;;;12.70;99.90;;;;;;5029492;28;20057;-74
2023/06/30 00:39:05;;;;;;;13.40;3.90;;;12.60;99.90;;;;;;5030866;28;20053;-74
2023/06/30 00:41:31;;;;;;;12.82;3.80;;;12.60;99.90;;;;;;5030696;28;20072;-75
2023/06/30 00:43:58;;;;;;;11.98;3.40;;;12.60;99.90;;;;;;5029312;28;20060;-75
2023/06/30 00:46:23;;;;;;;16.17;4.40;;;12.50;99.90;;;;;;5031260;28;20072;-75
2023/06/30 00:48:49;;;;;;;9.98;3.42;;;12.50;99.90;;;;;;5029753;28;20072;-73
2023/06/30 00:51:15;;;;;;;10.32;4.20;;;12.60;99.90;;;;;;5012934;28;20088;-74
2023/06/30 00:53:41;;;;;;;11.75;4.25;;;12.50;99.90;;;;;;5049712;28;20139;-74
2023/06/30 00:56:06;;;;;;;10.02;4.00;;;12.50;99.90;;;;;;5032537;28;20132;-74
2023/06/30 00:58:32;;;;;;;14.85;4.47;;;12.40;99.90;;;;;;5050094;28;20048;-74
2023/06/30 01:01:33;;;;;;;10.30;3.70;;;12.40;99.90;;;;;;5050397;28;20049;-74
2023/06/30 01:04:35;;;;;;;11.07;4.05;;;12.40;99.90;;;;;;5045408;28;20514;-75
2023/06/30 01:07:29;;;;;;;11.27;3.63;;;12.40;99.90;;;;;;5040383;28;20063;-75
2023/06/30 01:10:00;;;;;;;8.90;3.42;;;12.40;99.90;;;;;;5044492;28;20442;-74
2023/06/30 01:12:26;;;;;;;6.40;3.13;;;12.40;99.90;;;;;;5032704;28;20440;-74
2023/06/30 01:14:53;;;;;;;9.32;3.67;;;12.30;99.90;;;;;;5050117;28;20040;-74
2023/06/30 01:17:21;;;;;;;10.30;3.15;;;12.20;99.90;;;;;;5050038;28;20063;-74
2023/06/30 01:19:49;;;;;;;12.43;3.47;;;12.20;99.90;;;;;;5050128;28;20079;-74
2023/06/30 01:22:23;;;;;;;12.93;3.60;;;12.20;99.90;;;;;;5015586;28;20128;-74
2023/06/30 01:24:53;;;;;;;10.25;3.35;;;12.60;99.90;;;;;;5050034;28;20057;-74
2023/06/30 01:27:20;;;;;;;7.22;3.03;;;12.20;99.90;;;;;;5050082;28;20037;-74
2023/06/30 01:29:46;;;;;;;9.60;3.08;;;12.10;99.90;;;;;;5049330;28;20106;-74
2023/06/30 01:32:16;;;;;;;13.25;3.58;;;12.20;99.90;;;;;;5031757;28;20047;-74
2023/06/30 01:34:44;;;;;;;9.73;3.67;;;12.20;99.90;;;;;;5049927;28;20135;-75
2023/06/30 01:37:10;;;;;;;11.02;3.50;;;12.10;99.90;;;;;;5049465;28;20041;-74
2023/06/30 01:39:36;;;;;;;12.57;2.95;;;12.20;99.90;;;;;;5049920;28;20041;-74
2023/06/30 01:42:02;;;;;;;17.85;3.25;;;12.00;99.90;;;;;;5031667;28;20080;-75
2023/06/30 01:44:28;;;;;;;11.57;3.88;;;12.00;99.90;;;;;;5049808;28;20048;-74
2023/06/30 01:46:54;;;;;;;16.77;3.35;;;12.10;99.90;;;;;;5031452;28;20110;-74
2023/06/30 01:49:21;;;;;;;7.70;2.80;;;11.90;99.90;;;;;;5032366;28;20340;-74
2023/06/30 01:51:46;;;;;;;10.65;3.53;;;11.90;99.90;;;;;;5031585;28;20052;-74
2023/06/30 01:54:12;;;;;;;10.20;3.42;;;11.80;99.90;;;;;;5048967;28;20698;-74
2023/06/30 01:56:37;;;;;;;19.50;3.40;;;11.80;99.90;;;;;;5031914;28;20053;-74
2023/06/30 01:59:03;;;;;;;8.65;3.22;;;12.10;99.90;;;;;;5031912;28;20041;-74
2023/06/30 02:01:29;;;;;;;10.80;3.20;;;11.70;99.90;;;;;;5042730;28;20045;-74
2023/06/30 02:03:54;;;;;;;12.43;3.00;;;11.70;99.90;;;;;;5031102;28;20053;-74
2023/06/30 02:06:20;;;;;;;8.93;3.20;;;11.70;99.90;;;;;;5049571;28;20845;-74
2023/06/30 02:08:45;;;;;;;16.67;4.03;;;11.60;99.90;;;;;;5031295;28;20057;-74
2023/06/30 02:11:11;;;;;;;13.88;3.10;;;11.80;99.90;;;;;;5049518;28;20063;-74
2023/06/30 02:13:37;;;;;;;14.88;3.58;;;11.60;99.90;;;;;;5049210;28;20530;-74
2023/06/30 02:16:03;;;;;;;8.10;3.67;;;11.60;99.90;;;;;;5048579;28;20041;-74
2023/06/30 02:18:28;;;;;;;9.40;3.33;;;11.60;99.90;;;;;;5049122;28;20134;-74
2023/06/30 02:20:54;;;;;;;11.85;3.30;;;11.50;99.90;;;;;;5049360;28;20052;-75
2023/06/30 02:23:19;;;;;;;12.48;3.65;;;11.50;99.90;;;;;;5049177;28;20025;-75
2023/06/30 02:25:45;;;;;;;16.63;3.65;;;11.50;99.90;;;;;;5049198;28;20561;-75
2023/06/30 02:28:11;;;;;;;13.32;3.65;;;11.50;99.90;;;;;;5031215;28;20091;-74
2023/06/30 02:30:36;;;;;;;11.85;3.40;;;11.40;99.90;;;;;;5048430;28;20779;-74
2023/06/30 02:33:02;;;;;;;7.05;3.08;;;11.50;99.90;;;;;;5009655;28;20056;-74
2023/06/30 02:35:28;;;;;;;9.57;3.55;;;11.40;99.90;;;;;;5031245;28;20037;-74
2023/06/30 02:37:53;;;;;;;11.70;2.92;;;11.60;99.90;;;;;;5031080;28;20110;-74
2023/06/30 02:40:22;;;;;;;12.45;2.90;;;11.40;99.90;;;;;;5146031;22;20024;-74
2023/06/30 02:42:48;;;;;;;13.77;4.43;;;11.40;99.90;;;;;;5049449;28;20064;-74
2023/06/30 02:45:13;;;;;;;9.25;3.80;;;11.80;99.90;;;;;;5048649;28;20041;-75
2023/06/30 02:47:40;;;;;;;11.50;3.65;;;11.50;99.90;;;;;;5027251;28;20057;-74
2023/06/30 02:50:06;;;;;;;12.35;3.72;;;11.70;99.90;;;;;;5013385;28;20060;-75
2023/06/30 02:52:32;;;;;;;13.45;3.38;;;11.30;99.90;;;;;;5014292;28;20087;-74
2023/06/30 02:54:58;;;;;;;9.65;3.20;;;11.40;99.90;;;;;;5049154;28;20076;-75
2023/06/30 02:57:23;;;;;;;13.85;3.40;;;11.30;99.90;;;;;;5048734;28;20052;-74
2023/06/30 02:59:49;;;;;;;9.45;3.30;;;11.60;99.90;;;;;;5030622;28;20555;-74
2023/06/30 03:02:14;;;;;;;11.63;3.22;;;11.10;99.90;;;;;;5048742;28;20033;-74
2023/06/30 03:04:40;;;;;;;11.98;3.40;;;11.40;99.90;;;;;;5028913;28;20124;-74
2023/06/30 03:07:06;;;;;;;15.05;3.58;;;11.10;99.90;;;;;;5052624;28;20483;-75
2023/06/30 03:09:31;;;;;;;8.73;2.92;;;11.10;99.90;;;;;;5052411;28;20037;-74
2023/06/30 03:11:57;;;;;;;7.82;2.63;;;11.00;99.90;;;;;;5052519;28;20052;-74
2023/06/30 03:14:22;;;;;;;15.30;4.07;;;11.10;99.90;;;;;;5052535;28;20036;-74
2023/06/30 03:16:48;;;;;;;11.63;2.97;;;11.00;99.90;;;;;;5048411;28;20041;-75
2023/06/30 03:19:14;;;;;;;12.38;3.75;;;11.10;99.90;;;;;;5052253;28;20060;-74
2023/06/30 03:21:39;;;;;;;10.65;3.15;;;11.10;99.90;;;;;;5033746;28;20052;-74
2023/06/30 03:24:05;;;;;;;8.90;3.60;;;10.90;99.90;;;;;;5052465;28;20075;-74
2023/06/30 03:26:31;;;;;;;11.57;3.17;;;10.90;99.90;;;;;;5052195;28;20483;-74
2023/06/30 03:28:57;;;;;;;7.25;3.47;;;11.00;99.90;;;;;;5033544;28;20045;-74
2023/06/30 03:31:23;;;;;;;11.90;3.40;;;11.30;99.90;;;;;;5052426;28;20048;-74
2023/06/30 03:33:49;;;;;;;10.73;3.47;;;10.90;99.90;;;;;;5051237;28;20033;-74
2023/06/30 03:36:14;;;;;;;11.85;3.53;;;11.20;99.90;;;;;;5034350;28;20107;-74
2023/06/30 03:38:40;;;;;;;10.35;3.17;;;10.90;99.90;;;;;;5052022;28;20586;-74
2023/06/30 03:41:06;;;;;;;12.82;3.63;;;11.00;99.90;;;;;;5051422;28;20049;-74
2023/06/30 03:43:32;;;;;;;15.07;3.83;;;10.80;99.90;;;;;;5052035;28;20053;-74
2023/06/30 03:45:58;;;;;;;9.73;3.55;;;10.80;99.90;;;;;;5051778;28;20033;-75
2023/06/30 03:48:24;;;;;;;11.43;3.70;;;10.80;99.90;;;;;;5046325;28;20448;-74
2023/06/30 03:50:53;;;;;;;11.27;3.47;;;11.00;99.90;;;;;;5051696;28;20052;-74
2023/06/30 03:53:19;;;;;;;10.60;3.58;;;11.10;99.90;;;;;;5034175;28;20099;-74
2023/06/30 03:55:44;;;;;;;5.90;2.95;;;10.80;99.90;;;;;;5051934;28;20488;-74
2023/06/30 03:58:10;;;;;;;13.35;3.60;;;11.00;99.90;;;;;;5033388;28;20092;-75
2023/06/30 04:00:35;;;;;;;11.70;3.47;;;10.90;99.90;;;;;;5033508;28;20037;-74
2023/06/30 04:03:01;;;;;;;15.38;4.45;;;10.90;99.90;;;;;;5051475;28;20049;-75
2023/06/30 04:05:27;;;;;;;9.00;3.03;;;10.90;99.90;;;;;;5050992;28;20076;-75
2023/06/30 04:07:52;;;;;;;10.38;3.50;;;10.90;99.90;;;;;;5033588;28;20071;-74
2023/06/30 04:10:18;;;;;;;6.50;3.20;;;11.40;99.90;;;;;;5051481;28;20098;-75
2023/06/30 04:12:44;;;;;;;12.43;3.88;;;10.90;99.90;;;;;;5033401;28;20095;-74
2023/06/30 04:15:10;;;;;;;8.52;3.50;;;10.90;99.90;;;;;;5051404;28;20084;-74
2023/06/30 04:17:38;;;;;;;14.00;4.05;;;11.00;99.90;;;;;;5030754;28;20045;-74
2023/06/30 04:20:08;;;;;;;7.90;3.60;;;11.00;99.90;;;;;;5050783;28;20143;-75
2023/06/30 04:22:35;;;;;;;11.27;4.20;;;11.00;99.90;;;;;;5051232;28;20040;-75
2023/06/30 04:25:01;;;;;;;7.63;3.88;;;11.10;99.90;;;;;;5033303;28;20099;-75
2023/06/30 04:27:26;;;;;;;13.45;4.10;;;11.20;99.90;;;;;;5051229;28;20072;-75
2023/06/30 04:29:52;;;;;;;19.08;3.78;;;11.30;99.90;;;;;;5032129;28;20040;-75
2023/06/30 04:32:18;;;;;;;16.70;4.70;;;11.30;99.90;;;;;;5050837;28;20040;-75
2023/06/30 04:34:44;;;;;;;9.30;3.38;;;11.40;99.90;;;;;;5050636;28;20082;-75
2023/06/30 04:37:10;;;;;;;11.45;4.40;;;11.40;99.90;;;;;;5032620;28;20049;-74
2023/06/30 04:39:36;;;;;;;10.10;4.13;;;11.50;99.90;;;;;;5051173;28;20053;-74
2023/06/30 04:42:01;;;;;;;12.50;4.50;;;11.60;99.90;;;;;;5032595;28;20053;-74
2023/06/30 04:44:30;;;;;;;11.02;3.85;;;11.60;99.90;;;;;;5050742;28;20041;-74
2023/06/30 04:46:56;;;;;;;16.08;4.55;;;11.80;99.90;;;;;;5050441;28;20051;-76
2023/06/30 04:49:22;;;;;;;11.48;4.63;;;11.80;99.90;;;;;;5032817;28;20048;-75
2023/06/30 04:51:48;;;;;;;10.75;4.18;;;11.90;99.90;;;;;;5050148;28;20060;-74
2023/06/30 04:54:14;;;;;;;7.63;4.25;;;12.00;99.90;;;;;;5032427;28;20392;-75
2023/06/30 04:56:39;;;;;;;11.63;4.00;;;12.20;99.90;;;;;;5032824;28;20059;-74
2023/06/30 04:59:05;;;;;;;13.68;4.38;;;12.10;99.90;;;;;;5032778;28;20054;-74
2023/06/30 05:01:32;;;;;;;9.65;4.38;;;12.20;99.90;;;;;;5049972;28;20083;-75
2023/06/30 05:03:58;;;;;;;14.55;4.90;;;12.30;99.90;;;;;;5050077;28;20502;-74
2023/06/30 05:06:24;;;;;;;11.15;4.45;;;12.40;99.90;;;;;;5049589;28;20045;-75
2023/06/30 05:08:50;;;;;;;11.38;4.75;;;12.50;99.90;;;;;;5032337;28;20155;-75
2023/06/30 05:11:16;;;;;;;18.52;4.63;;;12.70;99.90;;;;;;5032740;28;20472;-76
2023/06/30 05:13:41;;;;;;;11.73;4.80;;;12.70;99.90;;;;;;5041925;28;20411;-74
2023/06/30 05:16:10;;;;;;;9.43;4.30;;;13.00;99.90;;;;;;5031545;28;20128;-75
2023/06/30 05:18:36;;;;;;;16.95;5.40;;;13.20;99.90;;;;;;5049475;28;20044;-74
2023/06/30 05:21:01;;;;;;;15.27;4.70;;;13.30;99.90;;;;;;5031262;28;20055;-75
2023/06/30 05:23:27;;;;;;;12.45;4.45;;;13.50;99.90;;;;;;5049963;28;20404;-76
2023/06/30 05:25:53;;;;;;;15.88;4.78;;;13.60;99.90;;;;;;5023740;28;20041;-75
2023/06/30 05:28:19;;;;;;;19.33;4.47;;;13.60;99.90;;;;;;5050137;28;20033;-75
2023/06/30 05:30:44;;;;;;;7.88;4.07;;;13.80;99.90;;;;;;5049942;28;20033;-74
2023/06/30 05:33:10;;;;;;;13.40;4.10;;;13.90;99.90;;;;;;5043731;28;20083;-76
2023/06/30 05:35:35;;;;;;;14.93;5.10;;;14.00;99.90;;;;;;5050414;28;20114;-75
2023/06/30 05:38:01;;;;;;;20.90;4.72;;;14.00;99.90;;;;;;5049517;28;20056;-75
2023/06/30 05:40:27;;;;;;;12.60;4.45;;;14.50;99.90;;;;;;5031713;28;20118;-75
2023/06/30 05:42:52;;;;;;;14.88;4.10;;;14.20;99.90;;;;;;5031855;28;20135;-76
2023/06/30 05:45:18;;;;;;;11.82;3.72;;;14.30;99.90;;;;;;5049357;28;20110;-74
2023/06/30 05:47:44;;;;;;;16.10;4.15;;;14.40;99.90;;;;;;5049644;28;20131;-75
2023/06/30 05:50:09;;;;;;;10.90;4.30;;;14.40;99.90;;;;;;5049791;28;20037;-75
2023/06/30 05:52:35;;;;;;;12.80;4.05;;;14.60;99.90;;;;;;5031630;28;20045;-74
2023/06/30 05:55:01;;;;;;;12.38;3.72;;;14.70;99.90;;;;;;5031607;28;20140;-74
2023/06/30 05:57:27;;;;;;;11.45;3.22;;;14.80;99.90;;;;;;5049516;28;20673;-76
2023/06/30 05:59:52;;;;;;;8.73;3.03;;;14.90;99.90;;;;;;5049459;28;20051;-75
2023/06/30 06:02:18;;;;;;;10.38;2.95;;;14.90;99.90;;;;;;5049240;28;20541;-75
2023/06/30 06:04:43;;;;;;;8.02;2.80;;;15.00;99.90;;;;;;5049678;28;20399;-75
2023/06/30 06:07:09;;;;;;;12.30;2.80;;;15.20;99.90;;;;;;5031090;28;20629;-76
2023/06/30 06:09:35;;;;;;;12.77;3.17;;;15.30;99.90;;;;;;5049186;28;20068;-75
2023/06/30 06:12:04;;;;;;;13.13;3.22;;;15.40;99.90;;;;;;5030991;28;20049;-76
2023/06/30 06:14:30;;;;;;;10.50;2.80;;;15.50;99.90;;;;;;5031403;28;20052;-76
2023/06/30 06:16:56;;;;;;;8.93;2.70;;;15.60;99.90;;;;;;5048996;28;20345;-74
2023/06/30 06:19:21;;;;;;;11.05;2.53;;;15.80;99.90;;;;;;5049118;28;20045;-76
2023/06/30 06:21:47;;;;;;;11.38;1.92;;;15.80;99.90;;;;;;5048876;28;20033;-76
2023/06/30 06:24:16;;;;;;;8.82;2.05;;;16.00;99.90;;;;;;5030921;28;20045;-74
2023/06/30 06:26:42;;;;;;;8.15;1.88;;;16.10;99.90;;;;;;5031142;28;20045;-74
2023/06/30 06:29:08;;;;;;;4.65;1.40;;;16.20;99.90;;;;;;5049160;28;20098;-76
2023/06/30 06:31:33;;;;;;;10.05;1.77;;;16.30;99.90;;;;;;5049194;28;20064;-75
2023/06/30 06:33:59;;;;;;;6.72;1.70;;;16.40;99.90;;;;;;5030733;28;20063;-75
2023/06/30 06:36:24;;;;;;;7.18;1.50;;;16.60;99.90;;;;;;5049241;28;20048;-76
2023/06/30 06:38:50;;;;;;;13.93;2.03;;;16.70;99.90;;;;;;5048896;28;20432;-76
2023/06/30 06:41:16;;;;;;;10.05;1.42;;;16.90;99.90;;;;;;5052296;28;20565;-76
2023/06/30 06:43:42;;;;;;;6.45;1.90;;;17.00;99.90;;;;;;5052826;28;20053;-75
2023/06/30 06:46:08;;;;;;;7.47;1.60;;;17.20;99.90;;;;;;5034575;28;20037;-75
2023/06/30 06:48:34;;;;;;;6.88;1.70;;;17.30;99.90;;;;;;5051928;28;20047;-76
2023/06/30 06:51:02;;;;;;;5.78;1.30;;;17.50;99.90;;;;;;5052938;28;20037;-76
2023/06/30 06:53:35;;;;;;;7.60;1.77;;;17.70;99.90;;;;;;5034692;28;20068;-74
2023/06/30 06:56:02;;;;;;;8.38;1.67;;;17.70;99.90;;;;;;5052731;28;20495;-75
2023/06/30 06:58:33;;;;;;;7.57;1.85;;;17.80;99.90;;;;;;5034360;28;20094;-76
2023/06/30 07:00:59;;;;;;;6.75;1.60;;;17.90;99.90;;;;;;5052458;28;20458;-75
2023/06/30 07:03:24;;;;;;;13.32;2.17;;;17.90;99.90;;;;;;5052556;28;20503;-76
2023/06/30 07:05:50;;;;;;;4.60;1.25;;;18.00;99.90;;;;;;5052442;28;20044;-74
2023/06/30 07:08:18;;;;;;;6.65;1.55;;;18.00;99.90;;;;;;5051535;28;20048;-75
2023/06/30 07:10:45;;;;;;;10.10;1.88;;;18.10;99.90;;;;;;5052255;28;20097;-76
2023/06/30 07:13:12;;;;;;;10.00;2.17;;;18.00;99.90;;;;;;5034147;28;20178;-75
2023/06/30 07:15:38;;;;;;;9.52;1.70;;;18.00;99.90;;;;;;5032489;28;20052;-75
2023/06/30 07:18:04;;;;;;;4.63;1.40;;;18.10;99.90;;;;;;5052209;28;20397;-75
2023/06/30 07:20:29;;;;;;;6.38;1.55;;;18.20;99.90;;;;;;5052549;28;20052;-75
2023/06/30 07:22:56;;;;;;;8.15;1.30;;;18.30;99.90;;;;;;5052421;28;20124;-74
2023/06/30 07:25:22;;;;;;;6.05;1.33;;;18.20;99.90;;;;;;5052169;28;20037;-74
2023/06/30 07:27:52;;;;;;;7.93;1.17;;;18.10;99.90;;;;;;5049697;28;20052;-76
2023/06/30 07:30:20;;;;;;;16.58;1.50;;;18.00;99.90;;;;;;5052372;28;20091;-76
2023/06/30 07:32:46;;;;;;;4.30;1.02;;;17.90;99.90;;;;;;5033964;28;20071;-76
2023/06/30 07:35:12;;;;;;;8.18;1.02;;;18.10;99.90;;;;;;5033513;28;20041;-77
2023/06/30 07:37:38;;;;;;;3.22;0.93;;;18.30;99.90;;;;;;5051922;28;20037;-75
2023/06/30 07:40:06;;;;;;;6.18;0.95;;;18.30;99.90;;;;;;5051666;28;20060;-74
2023/06/30 07:42:32;;;;;;;9.90;1.05;;;18.10;99.90;;;;;;5051784;28;20064;-76
2023/06/30 07:44:57;;;;;;;5.32;1.42;;;18.00;99.90;;;;;;5045842;28;20045;-77
2023/06/30 07:47:23;;;;;;;8.32;1.30;;;18.00;99.90;;;;;;5052224;28;20040;-78
2023/06/30 07:49:48;;;;;;;6.05;1.10;;;18.30;99.90;;;;;;5051947;28;20052;-77
2023/06/30 07:52:14;;;;;;;7.45;1.13;;;18.60;99.90;;;;;;5046346;28;20037;-75
2023/06/30 07:54:41;;;;;;;7.10;1.63;;;18.80;99.90;;;;;;5033796;28;20431;-76
2023/06/30 07:57:07;;;;;;;20.95;2.63;;;19.10;99.90;;;;;;5051644;28;20049;-75
2023/06/30 07:59:33;;;;;;;5.88;1.00;;;19.00;99.90;;;;;;5052021;28;20048;-76
2023/06/30 08:01:59;;;;;;;7.47;1.30;;;19.10;99.90;;;;;;5050331;28;20041;-74
2023/06/30 08:04:25;;;;;;;3.75;0.90;;;19.30;99.90;;;;;;5046899;28;20103;-75
2023/06/30 08:06:50;;;;;;;4.05;0.80;;;19.20;99.90;;;;;;5028112;28;20041;-75
2023/06/30 08:09:16;;;;;;;6.38;0.88;;;19.50;99.90;;;;;;5052340;28;20049;-78
2023/06/30 08:11:42;;;;;;;4.57;0.80;;;19.80;99.90;;;;;;5033797;28;20041;-73
2023/06/30 08:14:07;;;;;;;6.60;0.90;;;19.90;99.90;;;;;;5034320;28;20152;-75
2023/06/30 08:16:33;;;;;;;5.20;1.52;;;19.90;99.90;;;;;;5034013;28;20041;-75
2023/06/30 08:18:58;;;;;;;4.85;0.88;;;19.70;99.90;;;;;;5052592;28;20037;-75
2023/06/30 08:21:24;;;;;;;7.20;0.93;;;19.40;99.90;;;;;;5034514;28;20396;-78
2023/06/30 08:23:50;;;;;;;5.20;0.68;;;19.50;99.90;;;;;;5051624;28;20528;-75
2023/06/30 08:26:16;;;;;;;2.60;0.70;;;19.80;99.90;;;;;;5051865;28;20041;-77
2023/06/30 08:28:41;;;;;;;6.30;1.33;;;19.90;99.90;;;;;;5051841;28;20045;-77
2023/06/30 08:31:07;;;;;;;4.68;0.70;;;20.30;99.90;;;;;;5034085;28;20059;-75
2023/06/30 08:33:33;;;;;;;5.75;0.75;;;20.50;99.90;;;;;;5050228;28;20070;-76
2023/06/30 08:35:59;;;;;;;4.32;0.80;;;20.50;99.90;;;;;;5051648;28;20399;-74
2023/06/30 08:38:25;;;;;;;2.83;0.85;;;20.60;99.90;;;;;;5032746;28;20067;-75
2023/06/30 08:40:50;;;;;;;6.32;0.85;;;20.90;99.90;;;;;;5051359;28;20483;-79
2023/06/30 08:43:20;;;;;;;4.78;1.33;;;21.20;99.90;;;;;;5050757;28;20045;-77
2023/06/30 08:45:48;;;;;;;4.55;0.90;;;21.30;99.90;;;;;;5032017;28;20047;-75
2023/06/30 08:48:18;;;;;;;3.95;1.02;;;21.10;99.90;;;;;;5051307;28;20211;-76
2023/06/30 08:50:44;;;;;;;6.68;1.20;;;20.90;99.90;;;;;;5051230;28;20052;-76
2023/06/30 08:53:10;;;;;;;1.58;0.90;;;20.80;99.90;;;;;;5051109;28;20049;-78
2023/06/30 08:55:36;;;;;;;3.55;0.80;;;20.50;99.90;;;;;;5051162;28;20368;-79
2023/06/30 08:58:02;;;;;;;3.85;1.00;;;20.50;99.90;;;;;;5051034;28;20056;-75
2023/06/30 09:00:28;;;;;;;3.70;0.90;;;20.40;99.90;;;;;;5051230;28;20045;-74
2023/06/30 09:02:55;;;;;;;2.83;0.90;;;20.50;99.90;;;;;;5050955;28;20049;-74
2023/06/30 09:05:23;;;;;;;35.65;3.70;;;20.60;99.90;;;;;;5050969;28;20084;-73
2023/06/30 09:07:56;;;;;;;11.40;1.60;;;20.80;99.90;;;;;;5033276;28;20046;-73
2023/06/30 09:10:26;;;;;;;5.93;1.05;;;21.10;99.90;;;;;;5032674;28;20496;-73
2023/06/30 09:12:57;;;;;;;8.18;1.00;;;21.10;99.90;;;;;;5029952;28;20079;-75
2023/06/30 09:15:24;;;;;;;2.50;0.70;;;20.80;99.90;;;;;;5032888;28;20044;-74
2023/06/30 09:17:54;;;;;;;2.47;0.75;;;20.80;99.90;;;;;;5050742;28;20045;-73
2023/06/30 09:20:24;;;;;;;5.53;1.15;;;20.90;99.90;;;;;;5032876;28;20124;-74
2023/06/30 09:22:50;;;;;;;10.65;1.15;;;21.10;99.90;;;;;;5044324;28;20045;-71
2023/06/30 09:25:24;;;;;;;4.55;0.88;;;21.30;99.90;;;;;;5045888;28;20114;-73
2023/06/30 09:27:51;;;;;;;10.70;1.33;;;21.70;99.90;;;;;;5032389;28;20137;-73
2023/06/30 09:30:16;;;;;;;5.80;1.17;;;21.90;99.90;;;;;;5050660;28;20774;-73
2023/06/30 09:32:42;;;;;;;7.40;1.63;;;22.10;99.90;;;;;;5032675;28;20044;-74
2023/06/30 09:35:12;;;;;;;4.57;1.20;;;22.40;99.90;;;;;;5050340;28;20688;-73
2023/06/30 09:37:42;;;;;;;6.32;1.17;;;21.90;99.90;;;;;;5050856;28;20051;-75
2023/06/30 09:40:12;;;;;;;4.38;1.00;;;22.10;99.90;;;;;;5024574;28;20053;-79
2023/06/30 09:42:39;;;;;;;3.60;0.60;;;22.30;99.90;;;;;;5032372;28;20500;-75
2023/06/30 09:45:06;;;;;;;4.22;1.27;;;22.20;99.90;;;;;;5050264;28;20056;-73
2023/06/30 09:47:31;;;;;;;10.23;1.25;;;21.60;99.90;;;;;;5032655;28;20064;-74
2023/06/30 09:49:57;;;;;;;4.28;0.85;;;21.50;99.90;;;;;;5032258;28;20057;-74
2023/06/30 09:52:25;;;;;;;13.20;1.90;;;21.20;99.90;;;;;;5032482;28;20049;-74
2023/06/30 09:54:50;;;;;;;5.10;0.90;;;21.50;99.90;;;;;;5050384;28;20498;-78
2023/06/30 09:57:16;;;;;;;7.75;1.63;;;21.70;99.90;;;;;;5032159;28;20055;-74
2023/06/30 09:59:42;;;;;;;3.35;0.55;;;22.10;99.90;;;;;;5049826;28;20052;-75
2023/06/30 10:02:10;;;;;;;6.72;1.20;;;22.30;99.90;;;;;;5050107;28;20454;-76
2023/06/30 10:04:35;;;;;;;5.13;1.27;;;22.50;99.90;;;;;;5050169;28;20045;-77
2023/06/30 10:07:03;;;;;;;9.25;1.15;;;22.70;99.90;;;;;;5030675;28;20059;-76
2023/06/30 10:09:30;;;;;;;5.55;0.70;;;22.90;99.30;;;;;;5032100;28;20084;-74
2023/06/30 10:11:58;;;;;;;2.95;0.60;;;23.00;99.40;;;;;;5015803;28;20049;-75
2023/06/30 10:14:29;;;;;;;6.07;0.70;;;23.00;99.00;;;;;;5047221;28;20049;-77
2023/06/30 10:17:01;;;;;;;4.88;1.00;;;23.20;98.10;;;;;;5031792;28;20044;-77
2023/06/30 10:19:28;;;;;;;5.10;1.10;;;23.30;98.70;;;;;;5031705;28;20049;-79
2023/06/30 10:21:55;;;;;;;8.35;1.20;;;23.60;99.40;;;;;;5050255;28;20037;-80
2023/06/30 10:24:26;;;;;;;9.73;0.98;;;23.70;99.10;;;;;;5050055;28;20122;-79
2023/06/30 10:26:53;;;;;;;3.22;0.80;;;23.80;98.20;;;;;;5032067;28;20369;-79
2023/06/30 10:29:20;;;;;;;4.95;1.20;;;23.80;96.90;;;;;;5049371;28;20045;-81
2023/06/30 10:31:45;;;;;;;5.07;1.00;;;24.00;98.20;;;;;;5050189;28;20037;-76
2023/06/30 10:34:12;;;;;;;3.50;0.88;;;24.10;98.10;;;;;;5031663;28;20122;-76
2023/06/30 10:36:39;;;;;;;9.25;1.88;;;24.30;98.00;;;;;;5029307;28;20435;-77
2023/06/30 10:39:05;;;;;;;4.55;0.80;;;24.20;95.80;;;;;;5031589;28;20037;-80
2023/06/30 10:41:44;;;;;;;12.43;1.02;;;23.60;95.00;;;;;;5031581;28;20055;-77
2023/06/30 10:44:09;;;;;;;6.97;0.82;;;23.50;96.90;;;;;;5031729;28;20462;-76
2023/06/30 10:46:48;;;;;;;6.38;1.27;;;23.80;96.50;;;;;;5046536;28;20041;-80
2023/06/30 10:49:27;;;;;;;8.40;1.10;;;23.80;96.50;;;;;;5031669;28;20055;-80
2023/06/30 10:51:55;;;;;;;2.60;1.23;;;24.00;96.00;;;;;;5049803;28;20064;-75
2023/06/30 10:54:25;;;;;;;7.35;1.85;;;24.00;96.20;;;;;;5039926;28;20092;-74
2023/06/30 10:57:11;;;;;;;8.50;1.42;;;24.10;96.10;;;;;;5047664;28;20047;-76
2023/06/30 10:59:45;;;;;;;5.50;1.25;;;23.90;96.50;;;;;;5024669;28;20055;-77
2023/06/30 11:02:18;;;;;;;4.95;0.90;;;23.60;95.70;;;;;;5048618;28;20136;-78
2023/06/30 11:04:45;;;;;;;3.13;0.95;;;23.20;95.70;;;;;;5049803;28;20060;-78
2023/06/30 11:07:22;;;;;;;3.10;0.95;;;22.90;95.90;;;;;;5025785;28;20080;-80
2023/06/30 11:09:48;;;;;;;56.40;4.13;;;22.70;95.90;;;;;;5031150;28;20041;-81
2023/06/30 11:12:28;;;;;;;4.18;0.90;;;22.30;96.50;;;;;;5031553;28;20049;-77
2023/06/30 11:15:01;;;;;;;7.60;1.35;;;22.30;96.80;;;;;;5043349;28;20050;-75
2023/06/30 11:17:47;;;;;;;2.72;1.10;;;22.60;97.20;;;;;;5029684;28;20063;-76
2023/06/30 11:20:14;;;;;;;7.32;1.00;;;22.60;96.90;;;;;;5044649;28;20045;-78
2023/06/30 11:22:40;;;;;;;8.55;1.35;;;22.50;96.90;;;;;;5031619;28;20403;-76
2023/06/30 11:25:10;;;;;;;3.95;1.20;;;22.60;96.60;;;;;;5049554;28;20033;-76
2023/06/30 11:27:40;;;;;;;5.72;1.33;;;22.40;96.90;;;;;;5052859;28;20048;-74
2023/06/30 11:30:09;;;;;;;6.43;1.30;;;22.40;96.70;;;;;;5033378;28;20471;-75
2023/06/30 11:32:36;;;;;;;3.05;0.95;;;22.30;96.40;;;;;;5034869;28;20086;-74
2023/06/30 11:35:07;;;;;;;4.97;0.98;;;22.30;97.20;;;;;;5045073;28;20052;-75
2023/06/30 11:37:36;;;;;;;5.60;1.30;;;22.40;97.20;;;;;;5034648;28;20492;-74
2023/06/30 11:40:04;;;;;;;4.35;1.00;;;22.70;97.10;;;;;;5033159;28;20656;-76
2023/06/30 11:42:29;;;;;;;5.40;1.20;;;23.10;97.20;;;;;;5052478;28;20076;-74
2023/06/30 11:44:55;;;;;;;6.18;1.67;;;23.40;97.40;;;;;;5052701;28;20067;-76
2023/06/30 11:47:21;;;;;;;2.85;0.90;;;23.50;97.20;;;;;;5034389;28;20369;-75
2023/06/30 11:49:47;;;;;;;5.55;0.93;;;23.70;96.10;;;;;;5050651;28;20588;-77
2023/06/30 11:52:17;;;;;;;6.78;1.10;;;23.70;94.70;;;;;;5052362;28;20553;-75
2023/06/30 11:54:43;;;;;;;3.72;1.20;;;23.60;94.20;;;;;;5052786;28;20084;-76
2023/06/30 11:57:09;;;;;;;2.15;0.80;;;23.70;95.60;;;;;;5034253;28;20084;-76
2023/06/30 11:59:36;;;;;;;7.38;1.13;;;23.40;93.40;;;;;;5052549;28;20047;-76
2023/06/30 12:02:03;;;;;;;10.50;1.20;;;23.40;95.10;;;;;;5031885;28;20468;-77
2023/06/30 12:04:34;;;;;;;6.55;1.10;;;23.10;94.60;;;;;;5043571;28;20121;-76
2023/06/30 12:07:05;;;;;;;7.13;0.90;;;23.10;94.60;;;;;;5052257;28;20514;-79
2023/06/30 12:09:34;;;;;;;4.97;1.05;;;23.00;95.20;;;;;;5032702;28;20099;-80
2023/06/30 12:12:00;;;;;;;4.45;1.42;;;23.20;95.50;;;;;;5030115;28;20483;-81
2023/06/30 12:14:27;;;;;;;4.85;0.90;;;23.40;95.30;;;;;;5034325;28;20127;-80
2023/06/30 12:16:53;;;;;;;7.13;1.10;;;23.70;95.40;;;;;;5033661;28;20040;-81
2023/06/30 12:19:28;;;;;;;7.18;1.20;;;23.70;95.50;;;;;;5033989;28;20442;-80
2023/06/30 12:21:59;;;;;;;5.88;0.93;;;23.50;94.30;;;;;;5042978;28;20043;-78
2023/06/30 12:24:33;;;;;;;5.55;0.98;;;23.30;94.30;;;;;;5017545;28;20040;-76
2023/06/30 12:27:03;;;;;;;5.75;1.50;;;23.10;94.40;;;;;;5026796;28;20045;-76
2023/06/30 12:29:30;;;;;;;5.40;1.35;;;23.50;94.90;;;;;;5034057;28;20053;-80
2023/06/30 12:31:56;;;;;;;4.80;1.10;;;23.10;94.00;;;;;;5050380;28;20043;-79
2023/06/30 12:34:35;;;;;;;7.07;1.20;;;23.10;95.10;;;;;;5028455;28;20068;-76
2023/06/30 12:37:02;;;;;;;6.85;1.23;;;22.70;94.00;;;;;;5043092;28;20125;-76
2023/06/30 12:39:28;;;;;;;6.80;1.17;;;22.80;95.10;;;;;;5051324;28;20036;-77
2023/06/30 12:41:55;;;;;;;4.25;1.20;;;22.70;95.10;;;;;;5051284;28;20052;-76